Time;durP1;ratioP1;P1;durP2;ratioP2;P2;SDS_P1;SDS_P2;PMS_P1;PMS_P2;Temp;Humidity;BMP_temperature;BMP_pressure;BME280_temperature;BME280_humidity;BME280_pressure;Samples;Min_cycle;Max_cycle;Signal;HPM_P1;HPM_P2
2024/02/25 00:02:08;;;;;;;;;33.25;26.00;;;;;3.34;99.84;100157.75;114503;241;39464;-52
2024/02/25 00:04:42;;;;;;;;;29.00;22.00;;;;;3.36;99.61;100159.34;114442;238;161678;-49
2024/02/25 00:07:15;;;;;;;;;34.00;24.33;;;;;3.34;99.58;100153.20;114579;241;39549;-49
2024/02/25 00:09:49;;;;;;;;;25.67;20.00;;;;;3.28;99.60;100155.87;114468;238;161603;-51
2024/02/25 00:12:24;;;;;;;;;28.00;21.00;;;;;3.23;99.32;100157.45;114577;241;39504;-52
2024/02/25 00:14:58;;;;;;;;;25.33;20.67;;;;;3.10;99.37;100166.98;114601;241;39490;-50
2024/02/25 00:17:31;;;;;;;;;24.00;20.00;;;;;2.97;99.35;100172.92;114459;238;162127;-49
2024/02/25 00:20:06;;;;;;;;;27.50;19.00;;;;;2.86;99.17;100179.39;114619;241;40104;-49
2024/02/25 00:22:40;;;;;;;;;29.00;21.00;;;;;2.80;99.24;100176.23;114474;238;161043;-49
2024/02/25 00:25:15;;;;;;;;;27.00;21.00;;;;;2.81;99.39;100178.02;114560;241;39355;-52
2024/02/25 00:27:48;;;;;;;;;24.00;19.00;;;;;2.83;99.28;100178.06;114471;241;161139;-51
2024/02/25 00:30:22;;;;;;;;;24.50;20.50;;;;;2.76;99.23;100177.47;114564;241;40634;-49
2024/02/25 00:32:56;;;;;;;;;30.00;21.50;;;;;2.69;99.29;100176.27;114599;241;39513;-49
2024/02/25 00:35:30;;;;;;;;;25.00;19.67;;;;;2.64;99.22;100176.52;114449;238;161492;-51
2024/02/25 00:38:04;;;;;;;;;26.00;20.25;;;;;2.61;99.27;100177.73;114584;241;40830;-50
2024/02/25 00:40:37;;;;;;;;;30.00;22.00;;;;;2.58;99.20;100174.23;114437;238;162663;-53
2024/02/25 00:43:11;;;;;;;;;30.50;23.75;;;;;2.49;99.18;100174.53;114574;241;40181;-53
2024/02/25 00:45:45;;;;;;;;;27.00;20.00;;;;;2.47;99.14;100175.44;114439;238;161630;-53
2024/02/25 00:48:19;;;;;;;;;28.67;23.00;;;;;2.50;99.13;100177.33;114563;241;39651;-52
2024/02/25 00:50:53;;;;;;;;;30.75;20.75;;;;;2.56;99.38;100181.67;114585;241;40298;-52
2024/02/25 00:53:27;;;;;;;;;28.25;21.00;;;;;2.55;99.59;100181.75;114459;238;161467;-52
2024/02/25 00:56:01;;;;;;;;;31.33;23.33;;;;;2.56;99.55;100175.36;114615;241;38872;-48
2024/02/25 00:58:35;;;;;;;;;29.50;22.50;;;;;2.54;99.43;100169.45;114445;238;161553;-48
2024/02/25 01:01:14;;;;;;;;;29.00;21.00;;;;;2.49;99.38;100169.04;114616;241;40591;-48
2024/02/25 01:03:48;;;;;;;;;32.25;23.00;;;;;2.52;99.48;100171.08;114461;238;161746;-52
2024/02/25 01:06:22;;;;;;;;;31.25;23.75;;;;;2.47;99.51;100172.06;114547;241;40402;-54
2024/02/25 01:08:56;;;;;;;;;29.50;21.75;;;;;2.44;99.49;100172.15;114623;241;41142;-52
2024/02/25 01:11:30;;;;;;;;;28.25;22.00;;;;;2.38;99.34;100173.58;114461;238;161821;-52
2024/02/25 01:14:04;;;;;;;;;34.00;23.50;;;;;2.38;99.47;100171.35;114609;241;39875;-52
2024/02/25 01:16:38;;;;;;;;;28.00;22.00;;;;;2.40;99.41;100170.98;114450;238;161504;-52
2024/02/25 01:19:12;;;;;;;;;27.00;20.00;;;;;2.36;99.26;100165.69;114551;241;41295;-49
2024/02/25 01:21:46;;;;;;;;;33.00;21.67;;;;;2.30;99.22;100166.94;114410;238;161001;-49
2024/02/25 01:24:20;;;;;;;;;30.00;21.75;;;;;2.28;99.35;100166.94;114540;241;40520;-49
2024/02/25 01:26:54;;;;;;;;;20.25;16.25;;;;;2.27;99.42;100164.38;114593;241;40968;-48
2024/02/25 01:29:27;;;;;;;;;25.00;19.00;;;;;2.26;99.40;100162.90;114446;238;161628;-52
2024/02/25 01:32:01;;;;;;;;;25.00;19.00;;;;;2.20;99.56;100157.56;114568;241;39752;-53
2024/02/25 01:34:35;;;;;;;;;27.00;20.00;;;;;2.27;99.98;100151.73;114446;238;161716;-52
2024/02/25 01:37:10;;;;;;;;;29.75;20.00;;;;;2.36;100.00;100150.86;114586;241;39766;-53
2024/02/25 01:39:44;;;;;;;;;28.67;20.00;;;;;2.47;100.00;100153.40;114448;238;162012;-52
2024/02/25 01:42:23;;;;;;;;;26.50;21.00;;;;;2.53;100.00;100156.23;114530;241;40019;-52
2024/02/25 01:45:00;;;;;;;;;27.00;20.25;;;;;2.49;100.00;100155.55;114603;241;40084;-49
2024/02/25 01:47:34;;;;;;;;;27.67;21.67;;;;;2.42;99.97;100154.75;114455;238;161524;-49
2024/02/25 01:50:11;;;;;;;;;25.75;19.00;;;;;2.36;99.92;100162.66;114611;241;39434;-49
2024/02/25 01:52:45;;;;;;;;;28.00;21.00;;;;;2.27;99.88;100169.29;114577;240;161093;-49
2024/02/25 01:55:19;;;;;;;;;27.00;21.00;;;;;2.25;99.69;100167.08;114595;242;39678;-51
2024/02/25 01:57:54;;;;;;;;;34.67;25.00;;;;;2.20;99.58;100166.96;114464;238;161663;-51
2024/02/25 02:00:31;;;;;;;;;21.50;17.75;;;;;2.18;99.56;100168.26;114572;241;41075;-51
2024/02/25 02:03:05;;;;;;;;;31.25;23.50;;;;;2.11;99.59;100168.71;114596;241;41451;-52
2024/02/25 02:05:40;;;;;;;;;25.00;18.25;;;;;2.06;99.58;100169.19;114423;238;160757;-49
2024/02/25 02:08:14;;;;;;;;;25.00;20.00;;;;;1.95;99.57;100165.05;114557;241;40768;-50
2024/02/25 02:10:48;;;;;;;;;23.00;16.50;;;;;1.92;99.59;100157.73;114422;238;161681;-52
2024/02/25 02:13:23;;;;;;;;;32.33;22.67;;;;;1.91;99.80;100150.52;114557;241;39364;-52
2024/02/25 02:15:57;;;;;;;;;28.00;21.00;;;;;1.95;99.88;100147.52;114452;238;161983;-52
2024/02/25 02:18:31;;;;;;;;;29.33;22.00;;;;;2.00;99.96;100145.42;114527;241;39451;-52
2024/02/25 02:21:05;;;;;;;;;21.00;15.00;;;;;2.03;100.00;100142.15;114580;241;40736;-50
2024/02/25 02:23:39;;;;;;;;;23.00;18.00;;;;;2.07;100.00;100141.76;114378;238;161482;-50
2024/02/25 02:26:13;;;;;;;;;27.00;21.00;;;;;2.07;100.00;100138.88;114586;241;39795;-52
2024/02/25 02:28:47;;;;;;;;;28.33;20.00;;;;;2.10;100.00;100131.38;114452;238;161655;-51
2024/02/25 02:31:22;;;;;;;;;23.50;18.00;;;;;2.09;100.00;100121.14;114570;241;40605;-52
2024/02/25 02:33:56;;;;;;;;;32.00;22.25;;;;;2.05;99.91;100120.63;114466;238;161942;-52
2024/02/25 02:36:30;;;;;;;;;25.25;20.75;;;;;2.00;99.88;100117.40;114531;241;39304;-52
2024/02/25 02:39:04;;;;;;;;;22.00;18.00;;;;;1.94;99.74;100121.27;114620;241;39612;-52
2024/02/25 02:41:38;;;;;;;;;22.50;16.50;;;;;1.91;99.78;100120.68;114491;238;161387;-52
2024/02/25 02:44:12;;;;;;;;;24.25;19.00;;;;;1.90;99.79;100118.16;114671;241;39620;-50
2024/02/25 02:46:46;;;;;;;;;28.75;21.00;;;;;1.90;99.80;100110.84;114454;238;160588;-50
2024/02/25 02:49:19;;;;;;;;;21.75;16.50;;;;;1.89;99.78;100111.86;114575;241;39472;-50
2024/02/25 02:51:58;;;;;;;;;24.00;18.00;;;;;1.83;99.80;100111.13;114465;238;161951;-49
2024/02/25 02:54:31;;;;;;;;;34.25;24.75;;;;;1.78;99.82;100117.21;114576;241;39256;-50
2024/02/25 02:57:05;;;;;;;;;26.00;18.75;;;;;1.72;99.73;100111.61;114596;241;39828;-50
2024/02/25 02:59:39;;;;;;;;;21.75;17.00;;;;;1.67;99.82;100108.50;114424;238;161526;-50
2024/02/25 03:02:13;;;;;;;;;21.50;18.00;;;;;1.71;99.88;100112.38;114582;241;41078;-49
2024/02/25 03:04:47;;;;;;;;;25.00;18.67;;;;;1.75;99.98;100115.20;114424;238;161606;-49
2024/02/25 03:07:20;;;;;;;;;25.00;19.25;;;;;1.79;100.00;100114.12;114602;241;39584;-49
2024/02/25 03:09:55;;;;;;;;;33.00;18.75;;;;;1.84;99.99;100114.10;114438;238;161862;-48
2024/02/25 03:12:29;;;;;;;;;25.67;20.00;;;;;1.85;99.97;100111.45;114521;241;41593;-49
2024/02/25 03:15:03;;;;;;;;;33.00;25.00;;;;;1.84;99.89;100112.83;114578;241;39763;-52
2024/02/25 03:17:37;;;;;;;;;27.00;21.00;;;;;1.75;99.90;100115.90;114455;238;161690;-53
2024/02/25 03:20:13;;;;;;;;;31.00;23.00;;;;;1.74;99.78;100118.11;114640;241;41105;-53
2024/02/25 03:22:47;;;;;;;;;32.00;24.67;;;;;1.69;99.84;100121.79;114467;238;161292;-53
2024/02/25 03:25:21;;;;;;;;;35.00;25.00;;;;;1.69;99.82;100126.63;114605;241;39571;-49
2024/02/25 03:27:55;;;;;;;;;30.75;24.00;;;;;1.67;99.80;100131.40;114504;238;161106;-49
2024/02/25 03:30:29;;;;;;;;;23.00;19.00;;;;;1.65;99.80;100139.89;114553;242;41268;-49
2024/02/25 03:33:05;;;;;;;;;20.75;16.25;;;;;1.56;99.71;100144.12;114621;242;40093;-50
2024/02/25 03:35:39;;;;;;;;;30.00;21.00;;;;;1.51;99.69;100147.63;114441;241;161810;-50
2024/02/25 03:38:13;;;;;;;;;33.67;23.33;;;;;1.44;99.55;100144.67;114552;242;39419;-50
2024/02/25 03:40:47;;;;;;;;;31.00;24.00;;;;;1.37;99.61;100146.23;114412;241;162350;-51
2024/02/25 03:43:21;;;;;;;;;32.25;24.50;;;;;1.26;99.55;100146.52;114553;242;39959;-52
2024/02/25 03:45:54;;;;;;;;;27.33;20.00;;;;;1.12;99.43;100144.70;114435;241;161705;-50
2024/02/25 03:48:28;;;;;;;;;32.25;24.25;;;;;1.05;99.36;100153.71;114575;243;40309;-49
2024/02/25 03:51:04;;;;;;;;;31.50;23.75;;;;;0.97;99.28;100156.40;114565;242;39763;-49
2024/02/25 03:53:38;;;;;;;;;30.00;22.75;;;;;0.92;99.31;100156.80;114382;241;161804;-48
2024/02/25 03:56:13;;;;;;;;;36.00;26.00;;;;;0.89;99.31;100159.58;114535;242;39766;-53
2024/02/25 03:58:47;;;;;;;;;32.00;24.00;;;;;0.85;99.24;100160.99;114443;239;161283;-51
2024/02/25 04:01:22;;;;;;;;;36.00;26.00;;;;;0.82;99.32;100159.80;114559;243;40679;-51
2024/02/25 04:03:57;;;;;;;;;33.00;24.50;;;;;0.80;99.39;100157.48;114434;239;160936;-52
2024/02/25 04:06:33;;;;;;;;;27.00;22.00;;;;;0.78;99.62;100151.64;114343;243;40759;-49
2024/02/25 04:09:07;;;;;;;;;27.00;21.50;;;;;0.77;99.77;100142.18;114630;243;39930;-51
2024/02/25 04:11:41;;;;;;;;;24.00;19.00;;;;;0.75;99.89;100140.39;114042;241;592847;-51
2024/02/25 04:14:36;;;;;;;;;34.00;26.00;;;;;0.76;99.94;100138.78;114629;243;39661;-48
2024/02/25 04:17:13;;;;;;;;;34.75;25.75;;;;;0.84;99.97;100139.80;114428;239;161870;-48
2024/02/25 04:19:48;;;;;;;;;38.00;27.33;;;;;0.93;99.99;100136.89;114574;242;39511;-49
2024/02/25 04:22:23;;;;;;;;;41.00;29.00;;;;;0.92;99.98;100133.77;114423;239;162041;-50
2024/02/25 04:24:57;;;;;;;;;38.00;27.00;;;;;0.89;100.00;100136.36;114553;242;41031;-52
2024/02/25 04:27:31;;;;;;;;;42.00;29.00;;;;;0.87;99.99;100140.63;114604;242;40182;-52
2024/02/25 04:30:06;;;;;;;;;37.00;27.00;;;;;0.83;99.95;100136.89;114578;241;41259;-53
2024/02/25 04:32:43;;;;;;;;;43.00;29.75;;;;;0.83;99.88;100127.88;114599;241;39858;-53
2024/02/25 04:35:18;;;;;;;;;38.00;27.00;;;;;0.80;99.85;100125.92;114434;241;161829;-52
2024/02/25 04:37:52;;;;;;;;;45.00;29.00;;;;;0.77;99.75;100124.64;114574;241;39580;-54
2024/02/25 04:40:27;;;;;;;;;31.50;23.75;;;;;0.74;99.69;100127.95;114468;239;162088;-54
2024/02/25 04:43:01;;;;;;;;;46.00;32.50;;;;;0.66;99.64;100128.50;114592;241;39985;-53
2024/02/25 04:45:34;;;;;;;;;27.00;22.25;;;;;0.60;99.57;100125.42;114600;241;39445;-50
2024/02/25 04:48:10;;;;;;;;;35.00;24.00;;;;;0.56;99.58;100132.35;114526;241;40289;-50
2024/02/25 04:50:45;;;;;;;;;34.75;27.00;;;;;0.44;99.69;100128.26;114630;241;40372;-49
2024/02/25 04:53:19;;;;;;;;;29.75;22.00;;;;;0.39;99.77;100121.40;114478;239;161559;-49
2024/02/25 04:55:54;;;;;;;;;32.00;25.00;;;;;0.37;99.83;100116.08;114625;241;39795;-52
2024/02/25 04:58:28;;;;;;;;;28.25;23.00;;;;;0.47;99.99;100109.67;114459;239;161989;-53
2024/02/25 05:01:02;;;;;;;;;30.75;23.00;;;;;0.59;100.00;100110.03;114581;241;38997;-53
2024/02/25 05:03:36;;;;;;;;;33.50;25.00;;;;;0.63;100.00;100110.00;114598;241;39727;-53
2024/02/25 05:06:12;;;;;;;;;32.00;25.00;;;;;0.65;100.00;100109.79;114374;242;40346;-50
2024/02/25 05:08:46;;;;;;;;;32.00;24.00;;;;;0.70;100.00;100114.87;114611;242;39365;-51
2024/02/25 05:11:21;;;;;;;;;31.67;22.33;;;;;0.76;100.00;100114.61;114455;239;161623;-53
2024/02/25 05:13:55;;;;;;;;;31.00;24.00;;;;;0.83;100.00;100129.75;114559;242;40179;-50
2024/02/25 05:16:30;;;;;;;;;36.00;24.00;;;;;0.87;100.00;100128.92;114427;239;161817;-50
2024/02/25 05:19:04;;;;;;;;;25.50;20.50;;;;;0.85;100.00;100123.08;114583;241;39297;-53
2024/02/25 05:21:42;;;;;;;;;38.00;28.00;;;;;0.86;100.00;100117.77;114586;241;40672;-53
2024/02/25 05:24:18;;;;;;;;;31.25;23.75;;;;;0.89;100.00;100119.67;114582;241;40031;-53
2024/02/25 05:26:52;;;;;;;;;22.00;18.00;;;;;0.85;100.00;100119.13;114633;241;44447;-53
2024/02/25 05:29:27;;;;;;;;;34.00;25.00;;;;;0.86;100.00;100119.05;114495;239;162137;-53
2024/02/25 05:32:01;;;;;;;;;27.00;21.25;;;;;0.73;100.00;100123.05;114642;241;39983;-55
2024/02/25 05:34:35;;;;;;;;;28.00;19.50;;;;;0.63;99.99;100112.46;114497;239;161920;-51
2024/02/25 05:37:09;;;;;;;;;35.25;25.00;;;;;0.66;100.00;100117.81;114583;241;41036;-50
2024/02/25 05:39:43;;;;;;;;;33.00;25.00;;;;;0.65;100.00;100123.02;114633;241;40042;-53
2024/02/25 05:42:18;;;;;;;;;30.00;23.00;;;;;0.61;99.99;100118.25;114549;241;41397;-53
2024/02/25 05:44:53;;;;;;;;;31.67;24.00;;;;;0.57;99.96;100113.41;114612;241;39567;-49
2024/02/25 05:47:27;;;;;;;;;25.00;20.50;;;;;0.55;99.99;100109.37;114437;239;161524;-49
2024/02/25 05:50:02;;;;;;;;;33.67;24.67;;;;;0.64;100.00;100109.02;114578;241;40540;-50
2024/02/25 05:52:35;;;;;;;;;34.25;25.25;;;;;0.72;100.00;100104.16;114467;241;162774;-50
2024/02/25 05:55:11;;;;;;;;;29.75;22.00;;;;;0.76;100.00;100100.44;114553;241;40562;-52
2024/02/25 05:57:45;;;;;;;;;33.00;24.25;;;;;0.79;100.00;100107.66;114614;241;40356;-53
2024/02/25 06:00:20;;;;;;;;;29.00;22.00;;;;;0.80;100.00;100115.20;114571;241;39402;-49
2024/02/25 06:02:54;;;;;;;;;31.25;23.00;;;;;0.77;100.00;100116.98;114592;241;40049;-49
2024/02/25 06:05:30;;;;;;;;;34.00;22.75;;;;;0.78;100.00;100128.50;114437;239;161139;-49
2024/02/25 06:08:05;;;;;;;;;33.50;25.00;;;;;0.76;100.00;100137.67;114624;241;40859;-49
2024/02/25 06:10:39;;;;;;;;;22.00;19.00;;;;;0.71;100.00;100139.33;114514;239;161302;-53
2024/02/25 06:13:13;;;;;;;;;31.00;22.00;;;;;0.77;100.00;100139.05;114609;241;40134;-53
2024/02/25 06:15:47;;;;;;;;;35.33;24.33;;;;;0.83;100.00;100137.75;114579;241;39810;-49
2024/02/25 06:18:21;;;;;;;;;38.67;27.33;;;;;0.98;100.00;100131.06;114598;242;39889;-49
2024/02/25 06:20:54;;;;;;;;;32.00;24.00;;;;;1.11;100.00;100118.19;114610;241;40013;-52
2024/02/25 06:23:28;;;;;;;;;36.00;27.00;;;;;1.36;100.00;100105.11;114451;239;161988;-52
2024/02/25 06:26:03;;;;;;;;;35.00;25.00;;;;;1.97;100.00;100091.67;114601;241;39355;-50
2024/02/25 06:28:37;;;;;;;;;39.00;30.00;;;;;2.98;100.00;100091.41;114427;239;162028;-50
2024/02/25 06:31:14;;;;;;;;;34.00;26.00;;;;;3.16;100.00;100095.07;114601;241;39641;-53
2024/02/25 06:33:48;;;;;;;;;30.00;24.00;;;;;3.34;100.00;100106.40;114579;241;40985;-51
2024/02/25 06:36:26;;;;;;;;;30.50;24.75;;;;;3.52;100.00;100112.61;114549;242;39932;-52
2024/02/25 06:39:00;;;;;;;;;37.00;26.00;;;;;4.34;100.00;100114.17;114596;242;40847;-50
2024/02/25 06:41:35;;;;;;;;;26.00;19.75;;;;;4.92;100.00;100112.80;114427;239;161834;-50
2024/02/25 06:44:09;;;;;;;;;36.00;27.00;;;;;4.96;100.00;100113.11;114588;241;40582;-53
2024/02/25 06:46:44;;;;;;;;;34.00;25.00;;;;;5.00;100.00;100106.55;114139;241;161433;-55
2024/02/25 06:49:18;;;;;;;;;29.00;22.00;;;;;5.17;100.00;100111.91;114580;242;40678;-49
2024/02/25 06:51:52;;;;;;;;;38.75;27.00;;;;;5.32;100.00;100108.98;114506;242;162221;-49
2024/02/25 06:54:26;;;;;;;;;40.50;29.25;;;;;5.69;100.00;100108.95;114578;241;41245;-53
2024/02/25 06:57:01;;;;;;;;;35.00;26.00;;;;;6.26;100.00;100116.42;114645;241;40797;-53
2024/02/25 06:59:34;;;;;;;;;30.25;23.00;;;;;6.79;100.00;100121.67;114481;239;161722;-53
2024/02/25 07:02:09;;;;;;;;;38.50;28.75;;;;;6.99;100.00;100120.98;114605;241;40232;-54
2024/02/25 07:04:43;;;;;;;;;34.50;26.00;;;;;7.01;100.00;100126.98;114435;241;161195;-50
2024/02/25 07:07:17;;;;;;;;;31.00;22.75;;;;;7.34;100.00;100121.56;114584;242;39727;-51
2024/02/25 07:09:56;;;;;;;;;35.00;27.00;;;;;7.60;100.00;100112.60;114595;242;39331;-53
2024/02/25 07:12:30;;;;;;;;;37.25;28.25;;;;;8.05;98.68;100111.07;114344;242;40448;-53
2024/02/25 07:15:04;;;;;;;;;32.00;23.00;;;;;7.97;97.39;100110.05;114636;242;39180;-50
2024/02/25 07:17:41;;;;;;;;;32.75;25.50;;;;;7.83;96.77;100112.61;114390;239;160949;-50
2024/02/25 07:20:16;;;;;;;;;36.00;28.25;;;;;7.84;96.99;100107.90;114590;242;39271;-50
2024/02/25 07:22:50;;;;;;;;;28.00;22.00;;;;;8.22;96.43;100095.07;114445;239;161990;-51
2024/02/25 07:25:23;;;;;;;;;41.25;30.00;;;;;8.42;95.81;100091.94;114570;241;40287;-53
2024/02/25 07:27:57;;;;;;;;;25.67;20.33;;;;;8.74;95.91;100086.33;114446;239;162719;-53
2024/02/25 07:30:31;;;;;;;;;35.25;27.25;;;;;9.37;95.11;100079.45;114572;241;40385;-51
2024/02/25 07:33:05;;;;;;;;;40.00;30.00;;;;;10.04;94.56;100066.94;114629;241;40076;-51
2024/02/25 07:35:39;;;;;;;;;37.75;27.50;;;;;10.61;93.53;100066.66;114442;232;185786;-53
2024/02/25 07:38:13;;;;;;;;;35.00;28.00;;;;;11.02;93.59;100069.57;114564;242;40338;-53
2024/02/25 07:40:47;;;;;;;;;38.00;29.00;;;;;11.49;92.67;100061.65;114464;242;161344;-50
2024/02/25 07:43:21;;;;;;;;;34.00;26.00;;;;;11.71;91.42;100057.50;114576;242;39684;-50
2024/02/25 07:45:55;;;;;;;;;39.00;29.00;;;;;12.23;91.22;100049.59;114481;241;161459;-49
2024/02/25 07:48:30;;;;;;;;;39.25;31.00;;;;;13.14;92.08;100048.05;114585;243;40632;-50
2024/02/25 07:51:04;;;;;;;;;37.67;29.67;;;;;14.14;91.01;100046.84;114605;243;39037;-54
2024/02/25 07:53:40;;;;;;;;;41.50;31.00;;;;;15.22;89.93;100051.06;114455;242;161337;-52
2024/02/25 07:56:23;;;;;;;;;38.00;29.00;;;;;15.67;87.48;100052.89;114600;242;39184;-49
2024/02/25 07:58:57;;;;;;;;;43.00;32.00;;;;;16.00;87.96;100057.92;114455;241;161339;-53
2024/02/25 08:01:34;;;;;;;;;34.50;27.00;;;;;17.13;87.07;100054.92;114543;242;39691;-52
2024/02/25 08:04:08;;;;;;;;;36.00;28.00;;;;;17.76;85.64;100046.30;114463;241;161535;-51
2024/02/25 08:06:43;;;;;;;;;28.75;23.00;;;;;18.14;84.70;100041.38;114541;242;40637;-52
2024/02/25 08:09:17;;;;;;;;;32.50;25.75;;;;;18.62;82.16;100033.95;114582;242;39951;-54
2024/02/25 08:11:51;;;;;;;;;39.00;30.00;;;;;19.49;79.71;100035.11;114411;239;161422;-54
2024/02/25 08:14:25;;;;;;;;;34.50;27.75;;;;;19.50;78.34;100029.18;114570;241;41498;-51
2024/02/25 08:16:58;;;;;;;;;27.33;22.67;;;;;20.12;75.57;100024.55;114412;240;162197;-52
2024/02/25 08:19:32;;;;;;;;;34.00;27.00;;;;;20.30;72.65;100017.75;114573;242;40521;-54
2024/02/25 08:22:07;;;;;;;;;34.00;26.75;;;;;20.17;70.43;100020.75;114493;241;161683;-54
2024/02/25 08:24:41;;;;;;;;;33.50;28.00;;;;;20.27;70.43;100018.77;114553;242;40020;-51
2024/02/25 08:27:15;;;;;;;;;31.67;26.67;;;;;20.73;67.69;100021.11;114629;241;40343;-51
2024/02/25 08:29:49;;;;;;;;;26.25;22.00;;;;;20.90;65.78;100016.98;114440;241;161511;-51
2024/02/25 08:32:23;;;;;;;;;33.67;27.67;;;;;20.87;66.14;100005.98;114623;242;40785;-52
2024/02/25 08:34:57;;;;;;;;;30.00;24.00;;;;;20.78;64.91;100002.86;114500;241;161626;-54
2024/02/25 08:37:31;;;;;;;;;30.00;25.00;;;;;20.69;63.78;99998.56;114638;242;39933;-53
2024/02/25 08:40:07;;;;;;;;;30.75;26.00;;;;;20.13;62.49;99998.85;114485;239;161410;-54
2024/02/25 08:42:41;;;;;;;;;29.25;23.00;;;;;18.52;62.14;99998.44;114586;242;40173;-54
2024/02/25 08:45:15;;;;;;;;;29.00;23.00;;;;;17.06;62.35;99997.79;114641;242;40023;-54
2024/02/25 08:47:49;;;;;;;;;31.50;26.75;;;;;16.74;64.29;99994.05;114431;239;161240;-54
2024/02/25 08:50:23;;;;;;;;;35.00;29.00;;;;;17.25;62.88;99987.55;114584;242;39535;-51
2024/02/25 08:52:58;;;;;;;;;29.50;24.00;;;;;17.50;62.65;99981.17;114421;239;161206;-50
2024/02/25 08:55:32;;;;;;;;;34.50;26.50;;;;;17.34;62.53;99979.70;114550;242;39463;-51
2024/02/25 08:58:06;;;;;;;;;37.00;30.00;;;;;17.22;62.03;99977.38;114449;239;161787;-51
2024/02/25 09:00:44;;;;;;;;;38.50;30.25;;;;;17.25;61.80;99969.58;114563;242;40067;-54
2024/02/25 09:03:18;;;;;;;;;33.00;26.00;;;;;17.70;62.59;99962.75;114573;242;41417;-52
2024/02/25 09:05:52;;;;;;;;;32.75;26.75;;;;;18.01;61.81;99960.70;114403;240;161112;-53
2024/02/25 09:08:26;;;;;;;;;32.25;26.00;;;;;17.58;61.71;99957.94;114561;242;39525;-53
2024/02/25 09:11:00;;;;;;;;;34.50;26.25;;;;;18.12;62.32;99953.80;114446;239;161456;-52
2024/02/25 09:13:35;;;;;;;;;37.00;30.50;;;;;18.59;60.19;99960.23;114599;242;39590;-52
2024/02/25 09:16:09;;;;;;;;;37.67;31.00;;;;;18.51;60.54;99961.19;114432;241;162335;-54
2024/02/25 09:18:44;;;;;;;;;32.75;26.00;;;;;18.58;60.95;99957.30;114561;242;39370;-53
2024/02/25 09:21:18;;;;;;;;;35.00;28.25;;;;;18.81;60.49;99953.42;114572;242;39348;-54
2024/02/25 09:23:53;;;;;;;;;34.67;29.33;;;;;18.80;60.60;99950.89;114440;239;185462;-61
2024/02/25 09:26:27;;;;;;;;;37.00;29.67;;;;;18.85;58.09;99951.73;114572;241;39641;-60
2024/02/25 09:29:01;;;;;;;;;32.00;25.25;;;;;18.60;57.91;99951.00;114467;239;161119;-59
2024/02/25 09:31:35;;;;;;;;;33.25;26.50;;;;;18.41;58.00;99947.64;114595;241;39043;-56
2024/02/25 09:34:11;;;;;;;;;39.50;31.75;;;;;18.61;59.13;99946.14;114466;239;161420;-59
2024/02/25 09:36:46;;;;;;;;;35.00;28.00;;;;;18.91;59.56;99948.79;114539;242;39076;-53
2024/02/25 09:39:20;;;;;;;;;36.00;29.00;;;;;19.25;59.96;99943.68;114610;242;39526;-53
2024/02/25 09:41:55;;;;;;;;;35.00;28.00;;;;;19.66;59.40;99935.46;114734;241;161133;-53
2024/02/25 09:44:30;;;;;;;;;36.00;29.67;;;;;19.95;58.69;99928.44;114611;242;39362;-55
2024/02/25 09:47:07;;;;;;;;;37.00;30.00;;;;;20.26;56.68;99926.32;114459;239;161142;-55
2024/02/25 09:49:43;;;;;;;;;31.50;26.00;;;;;20.32;55.08;99922.21;114564;242;40820;-55
2024/02/25 09:52:17;;;;;;;;;32.00;25.50;;;;;20.02;55.62;99921.46;114441;239;161350;-54
2024/02/25 09:54:51;;;;;;;;;32.50;26.00;;;;;20.27;54.41;99919.85;114578;242;40242;-53
2024/02/25 09:57:25;;;;;;;;;35.75;29.75;;;;;20.30;53.94;99916.76;114534;242;41850;-53
2024/02/25 09:59:59;;;;;;;;;32.50;26.50;;;;;20.35;54.41;99914.66;114404;239;161396;-63
2024/02/25 10:02:33;;;;;;;;;32.00;25.75;;;;;20.51;55.73;99912.33;114608;242;39653;-51
2024/02/25 10:05:13;;;;;;;;;31.33;25.67;;;;;20.79;55.58;99910.93;114434;239;161280;-53
2024/02/25 10:08:01;;;;;;;;;39.00;32.00;;;;;20.89;54.75;99914.66;114601;242;39217;-62
2024/02/25 10:10:36;;;;;;;;;37.50;28.75;;;;;20.94;54.75;99913.85;114481;239;161452;-59
2024/02/25 10:13:11;;;;;;;;;36.00;30.00;;;;;20.58;54.52;99914.41;114588;242;39599;-61
2024/02/25 10:15:44;;;;;;;;;39.00;32.00;;;;;20.15;53.83;99913.30;114626;242;40164;-59
2024/02/25 10:18:18;;;;;;;;;31.25;24.75;;;;;19.60;54.09;99915.17;114429;238;160675;-60
2024/02/25 10:20:57;;;;;;;;;37.25;29.25;;;;;18.93;54.18;99909.89;114543;241;39182;-62
2024/02/25 10:23:34;;;;;;;;;37.75;30.75;;;;;18.38;54.73;99907.61;114480;241;161606;-58
2024/02/25 10:26:21;;;;;;;;;32.00;25.67;;;;;17.71;55.13;99900.91;114629;241;39649;-55
2024/02/25 10:29:12;;;;;;;;;38.25;30.00;;;;;16.94;55.97;99901.27;114478;241;161883;-55
2024/02/25 10:32:03;;;;;;;;;34.75;27.75;;;;;16.53;56.45;99900.42;114580;241;39770;-51
2024/02/25 10:34:37;;;;;;;;;36.50;29.00;;;;;16.15;56.83;99895.34;114443;238;161296;-51
2024/02/25 10:37:12;;;;;;;;;38.75;28.50;;;;;15.91;57.05;99891.90;114563;241;39580;-52
2024/02/25 10:39:47;;;;;;;;;28.25;22.75;;;;;15.58;57.68;99886.33;114574;241;39473;-53
2024/02/25 10:42:26;;;;;;;;;32.00;26.00;;;;;15.16;58.11;99889.41;114447;238;160936;-54
2024/02/25 10:45:01;;;;;;;;;38.00;29.00;;;;;14.91;58.93;99892.54;114592;241;39966;-54
2024/02/25 10:47:38;;;;;;;;;37.33;28.67;;;;;14.89;59.86;99891.16;114444;238;161498;-50
2024/02/25 10:50:13;;;;;;;;;30.50;25.00;;;;;14.86;60.10;99887.91;114579;241;40854;-51
2024/02/25 10:52:50;;;;;;;;;35.75;26.50;;;;;14.77;59.76;99886.35;114445;238;161198;-51
2024/02/25 10:55:26;;;;;;;;;34.00;26.00;;;;;14.70;59.90;99881.64;114577;241;39566;-51
2024/02/25 10:58:02;;;;;;;;;34.50;26.75;;;;;14.59;60.16;99879.17;114490;238;161383;-52
2024/02/25 11:00:36;;;;;;;;;31.25;26.00;;;;;14.45;60.55;99875.98;114566;241;40929;-51
2024/02/25 11:03:11;;;;;;;;;34.50;27.00;;;;;14.42;60.74;99873.77;114584;241;39889;-50
2024/02/25 11:05:46;;;;;;;;;32.00;25.00;;;;;14.36;60.52;99868.14;114448;238;161293;-53
2024/02/25 11:08:36;;;;;;;;;29.00;22.25;;;;;14.26;60.80;99862.48;114617;241;39667;-52
2024/02/25 11:11:16;;;;;;;;;29.75;23.75;;;;;14.12;61.07;99860.71;114476;238;161104;-51
2024/02/25 11:13:50;;;;;;;;;33.25;25.00;;;;;14.00;61.14;99858.67;114582;241;40941;-53
2024/02/25 11:16:35;;;;;;;;;32.00;24.25;;;;;14.00;61.33;99860.59;114435;239;161617;-55
2024/02/25 11:19:16;;;;;;;;;32.00;24.00;;;;;14.01;61.63;99853.19;114548;241;40160;-53
2024/02/25 11:21:57;;;;;;;;;35.67;26.00;;;;;13.87;61.80;99848.70;114583;241;40557;-53
2024/02/25 11:24:50;;;;;;;;;28.75;23.75;;;;;13.72;61.86;99843.33;114550;241;39805;-52
2024/02/25 11:27:25;;;;;;;;;30.00;23.00;;;;;13.67;62.24;99845.23;114574;241;41326;-51
2024/02/25 11:30:19;;;;;;;;;30.00;23.25;;;;;13.73;62.38;99839.38;114433;238;161772;-51
2024/02/25 11:32:54;;;;;;;;;30.00;22.75;;;;;13.81;62.63;99839.53;114600;241;40635;-50
2024/02/25 11:35:31;;;;;;;;;27.75;21.75;;;;;13.76;62.82;99834.81;114424;241;160952;-51
2024/02/25 11:38:07;;;;;;;;;24.00;17.75;;;;;13.74;62.71;99829.48;114543;241;39633;-51
2024/02/25 11:40:41;;;;;;;;;30.00;22.25;;;;;13.69;62.52;99830.63;114480;241;161327;-54
2024/02/25 11:43:16;;;;;;;;;24.00;18.00;;;;;13.63;62.46;99833.23;114580;241;39499;-63
2024/02/25 11:45:50;;;;;;;;;30.00;22.75;;;;;13.64;62.56;99838.44;114608;241;40666;-54
2024/02/25 11:48:30;;;;;;;;;24.00;19.00;;;;;13.60;62.18;99835.80;114559;241;39604;-54